createdAt,value
2023-03-11T00:00:09.718Z,4
2023-03-11T00:01:19.457Z,3
2023-03-11T00:02:26.692Z,3
2023-03-11T00:03:33.551Z,3
2023-03-11T00:04:40.757Z,2
2023-03-11T00:05:47.750Z,3
2023-03-11T00:06:54.759Z,3
2023-03-11T00:08:01.777Z,2
2023-03-11T00:09:09.548Z,3
2023-03-11T00:10:19.464Z,2
2023-03-11T00:11:31.609Z,2
2023-03-11T00:12:40.093Z,2
2023-03-11T00:13:48.969Z,2
2023-03-11T00:14:58.357Z,3
2023-03-11T00:16:05.358Z,2
2023-03-11T00:17:12.403Z,3
2023-03-11T00:18:19.365Z,2
2023-03-11T00:19:29.142Z,2
2023-03-11T00:20:36.156Z,2
2023-03-11T00:21:43.221Z,2
2023-03-11T00:22:50.260Z,2
2023-03-11T00:23:57.255Z,2
2023-03-11T00:25:04.242Z,2
2023-03-11T00:26:11.340Z,2
2023-03-11T00:27:18.271Z,2
2023-03-11T00:28:25.621Z,2
2023-03-11T00:29:32.589Z,2
2023-03-11T00:30:40.458Z,2
2023-03-11T00:31:47.392Z,1
2023-03-11T00:32:54.456Z,1
2023-03-11T00:34:02.638Z,1
2023-03-11T00:35:09.712Z,2
2023-03-11T00:36:16.777Z,2
2023-03-11T00:37:26.468Z,2
2023-03-11T00:38:36.009Z,2
2023-03-11T00:39:42.963Z,2
2023-03-11T00:40:50.880Z,2
2023-03-11T00:41:59.851Z,1
2023-03-11T00:43:07.219Z,1
2023-03-11T00:44:15.219Z,1
2023-03-11T00:45:22.246Z,2
2023-03-11T00:46:29.306Z,1
2023-03-11T00:47:39.191Z,1
2023-03-11T00:48:46.182Z,1
2023-03-11T00:49:53.223Z,2
2023-03-11T00:51:00.263Z,2
2023-03-11T00:52:07.410Z,2
2023-03-11T00:53:14.525Z,2
2023-03-11T00:54:21.606Z,2
2023-03-11T00:55:28.622Z,1
2023-03-11T00:56:35.643Z,1
2023-03-11T00:57:42.628Z,2
2023-03-11T00:58:49.610Z,2
2023-03-11T00:59:56.708Z,2
2023-03-11T01:01:06.731Z,1
2023-03-11T01:02:16.714Z,1
2023-03-11T01:03:23.717Z,1
2023-03-11T01:04:30.745Z,1
2023-03-11T01:05:37.898Z,2
2023-03-11T01:06:45.739Z,2
2023-03-11T01:07:51.919Z,2
2023-03-11T01:09:02.143Z,2
2023-03-11T01:10:09.175Z,1
2023-03-11T01:11:19.405Z,1
2023-03-11T01:12:27.212Z,1
2023-03-11T01:13:34.197Z,1
2023-03-11T01:14:41.332Z,1
2023-03-11T01:15:51.123Z,1
2023-03-11T01:16:58.153Z,1
2023-03-11T01:18:07.037Z,1
2023-03-11T01:19:14.435Z,1
2023-03-11T01:20:21.690Z,1
2023-03-11T01:21:28.692Z,2
2023-03-11T01:22:36.022Z,2
2023-03-11T01:23:43.126Z,3
2023-03-11T01:24:50.072Z,3
2023-03-11T01:25:57.095Z,2
2023-03-11T01:27:04.299Z,2
2023-03-11T01:28:14.312Z,2
2023-03-11T01:29:26.106Z,2
2023-03-11T01:30:33.110Z,2
2023-03-11T01:31:40.874Z,2
2023-03-11T01:32:47.922Z,2
2023-03-11T01:33:54.889Z,2
2023-03-11T01:35:01.918Z,2
2023-03-11T01:36:09.322Z,2
2023-03-11T01:37:16.283Z,2
2023-03-11T01:38:23.293Z,2
2023-03-11T01:39:30.300Z,2
2023-03-11T01:40:40.270Z,2
2023-03-11T01:41:47.291Z,1
2023-03-11T01:42:54.975Z,2
2023-03-11T01:44:04.644Z,2
2023-03-11T01:45:11.902Z,2
2023-03-11T01:46:29.123Z,2
2023-03-11T01:47:47.083Z,1
2023-03-11T01:48:54.039Z,2
2023-03-11T01:50:01.293Z,2
2023-03-11T01:51:08.938Z,2
2023-03-11T01:52:15.974Z,1
2023-03-11T01:53:22.982Z,1
2023-03-11T01:54:29.976Z,1
2023-03-11T01:55:37.090Z,1
2023-03-11T01:56:45.111Z,1
2023-03-11T01:57:52.099Z,1
2023-03-11T01:58:59.078Z,1
2023-03-11T02:00:06.301Z,1
2023-03-11T02:01:13.590Z,1
2023-03-11T02:02:23.353Z,1
2023-03-11T02:03:33.425Z,1
2023-03-11T02:04:40.557Z,2
2023-03-11T02:05:47.614Z,2
2023-03-11T02:06:54.644Z,2
2023-03-11T02:08:01.643Z,2
2023-03-11T02:09:08.764Z,2
2023-03-11T02:10:15.798Z,2
2023-03-11T02:11:22.889Z,2
2023-03-11T02:12:29.862Z,2
2023-03-11T02:13:36.980Z,1
2023-03-11T02:14:43.944Z,1
2023-03-11T02:15:50.979Z,1
2023-03-11T02:16:58.003Z,1
2023-03-11T02:18:06.245Z,1
2023-03-11T02:19:13.245Z,1
2023-03-11T02:20:23.022Z,1
2023-03-11T02:21:35.203Z,2
2023-03-11T02:22:42.199Z,1
2023-03-11T02:23:49.243Z,1
2023-03-11T02:25:06.337Z,2
2023-03-11T02:26:13.391Z,1
2023-03-11T02:27:20.433Z,2
2023-03-11T02:28:28.353Z,1
2023-03-11T02:29:37.620Z,1
2023-03-11T02:30:44.637Z,1
2023-03-11T02:31:51.730Z,1
2023-03-11T02:33:01.512Z,1
2023-03-11T02:34:11.146Z,2
2023-03-11T02:35:23.191Z,1
2023-03-11T02:36:30.187Z,1
2023-03-11T02:37:43.205Z,1
2023-03-11T02:38:50.278Z,1
2023-03-11T02:39:59.387Z,1
2023-03-11T02:41:14.543Z,2
2023-03-11T02:42:24.456Z,1
2023-03-11T02:43:31.495Z,1
2023-03-11T02:44:41.537Z,1
2023-03-11T02:45:48.581Z,1
2023-03-11T02:46:57.222Z,2
2023-03-11T02:48:04.172Z,1
2023-03-11T02:49:11.185Z,1
2023-03-11T02:50:18.172Z,1
2023-03-11T02:51:26.466Z,1
2023-03-11T02:52:34.426Z,1
2023-03-11T02:53:42.514Z,1
2023-03-11T02:54:50.556Z,1
2023-03-11T02:55:57.577Z,1
2023-03-11T02:57:04.632Z,1
2023-03-11T02:58:11.748Z,1
2023-03-11T02:59:18.704Z,1
2023-03-11T03:00:25.705Z,1
2023-03-11T03:01:32.777Z,1
2023-03-11T03:02:41.542Z,1
2023-03-11T03:03:48.593Z,1
2023-03-11T03:04:56.034Z,1
2023-03-11T03:06:03.099Z,1
2023-03-11T03:07:10.035Z,1
2023-03-11T03:08:17.026Z,1
2023-03-11T03:09:23.991Z,1
2023-03-11T03:10:33.643Z,1
2023-03-11T03:11:42.528Z,1
2023-03-11T03:12:49.542Z,1
2023-03-11T03:13:56.504Z,1
2023-03-11T03:15:08.834Z,1
2023-03-11T03:16:16.009Z,1
2023-03-11T03:17:22.972Z,1
2023-03-11T03:18:30.022Z,1
2023-03-11T03:19:37.182Z,1
2023-03-11T03:20:45.102Z,1
2023-03-11T03:21:52.150Z,1
2023-03-11T03:22:59.129Z,1
2023-03-11T03:24:06.254Z,1
2023-03-11T03:25:15.203Z,1
2023-03-11T03:26:22.262Z,1
2023-03-11T03:27:30.871Z,1
2023-03-11T03:28:37.855Z,1
2023-03-11T03:29:45.020Z,1
2023-03-11T03:30:53.078Z,1
2023-03-11T03:32:00.160Z,1
2023-03-11T03:33:07.155Z,1
2023-03-11T03:34:14.206Z,1
2023-03-11T03:35:21.976Z,1
2023-03-11T03:36:28.960Z,1
2023-03-11T03:37:35.969Z,1
2023-03-11T03:38:46.349Z,1
2023-03-11T03:39:56.156Z,1
2023-03-11T03:41:03.271Z,1
2023-03-11T03:42:10.528Z,1
2023-03-11T03:43:17.712Z,1
2023-03-11T03:44:24.750Z,1
2023-03-11T03:45:31.906Z,1
2023-03-11T03:46:40.083Z,1
2023-03-11T03:47:47.051Z,1
2023-03-11T03:48:54.396Z,1
2023-03-11T03:50:01.453Z,1
2023-03-11T03:51:08.616Z,1
2023-03-11T03:52:15.763Z,1
2023-03-11T03:53:23.379Z,1
2023-03-11T03:54:30.345Z,1
2023-03-11T03:55:37.248Z,1
2023-03-11T03:56:44.232Z,1
2023-03-11T03:57:51.292Z,1
2023-03-11T03:58:59.055Z,1
2023-03-11T04:00:06.196Z,1
2023-03-11T04:01:13.470Z,1
2023-03-11T04:02:21.185Z,1
2023-03-11T04:03:28.195Z,1
2023-03-11T04:04:35.075Z,1
2023-03-11T04:05:42.015Z,1
2023-03-11T04:06:49.055Z,1
2023-03-11T04:07:56.006Z,1
2023-03-11T04:09:03.594Z,1
2023-03-11T04:10:10.645Z,1
2023-03-11T04:11:17.619Z,1
2023-03-11T04:12:24.659Z,1
2023-03-11T04:13:31.760Z,1
2023-03-11T04:14:38.721Z,1
2023-03-11T04:15:45.651Z,0
2023-03-11T04:16:52.762Z,0
2023-03-11T04:17:59.738Z,0
2023-03-11T04:19:06.769Z,1
2023-03-11T04:20:14.567Z,0
2023-03-11T04:21:21.544Z,1
2023-03-11T04:22:28.585Z,1
2023-03-11T04:23:35.928Z,0
2023-03-11T04:24:43.498Z,0
2023-03-11T04:25:50.568Z,1
2023-03-11T04:26:57.513Z,1
2023-03-11T04:28:04.507Z,1
2023-03-11T04:29:11.494Z,1
2023-03-11T04:30:21.110Z,1
2023-03-11T04:31:29.014Z,1
2023-03-11T04:32:36.040Z,1
2023-03-11T04:33:43.150Z,1
2023-03-11T04:34:53.164Z,1
2023-03-11T04:36:01.140Z,0
2023-03-11T04:37:11.632Z,0
2023-03-11T04:38:18.602Z,0
2023-03-11T04:39:25.574Z,0
2023-03-11T04:40:32.567Z,0
2023-03-11T04:41:43.393Z,0
2023-03-11T04:42:53.302Z,0
2023-03-11T04:44:01.795Z,0
2023-03-11T04:45:08.801Z,0
2023-03-11T04:46:16.004Z,0
2023-03-11T04:47:22.847Z,0
2023-03-11T04:48:29.813Z,0
2023-03-11T04:49:36.762Z,0
2023-03-11T04:50:43.706Z,1
2023-03-11T04:51:50.801Z,1
2023-03-11T04:52:57.937Z,0
2023-03-11T04:54:04.909Z,0
2023-03-11T04:55:11.941Z,1
2023-03-11T04:56:18.909Z,0
2023-03-11T04:57:29.217Z,1
2023-03-11T04:58:36.140Z,0
2023-03-11T04:59:45.937Z,0
2023-03-11T05:00:52.945Z,1
2023-03-11T05:02:00.268Z,0
2023-03-11T05:03:08.142Z,1
2023-03-11T05:04:15.233Z,1
2023-03-11T05:05:22.104Z,1
2023-03-11T05:06:29.069Z,1
2023-03-11T05:07:36.139Z,0
2023-03-11T05:08:43.211Z,1
2023-03-11T05:09:50.197Z,1
2023-03-11T05:10:57.157Z,0
2023-03-11T05:12:07.491Z,0
2023-03-11T05:13:14.498Z,0
2023-03-11T05:14:24.065Z,1
2023-03-11T05:15:30.972Z,0
2023-03-11T05:16:38.713Z,0
2023-03-11T05:17:46.036Z,1
2023-03-11T05:18:55.917Z,1
2023-03-11T05:20:02.892Z,0
2023-03-11T05:21:10.081Z,0
2023-03-11T05:22:16.942Z,0
2023-03-11T05:23:24.444Z,0
2023-03-11T05:24:31.479Z,1
2023-03-11T05:25:38.548Z,1
2023-03-11T05:26:48.141Z,1
2023-03-11T05:27:52.461Z,0
2023-03-11T05:28:59.465Z,1
2023-03-11T05:30:10.259Z,1
2023-03-11T05:31:18.942Z,1
2023-03-11T05:32:26.074Z,1
2023-03-11T05:33:33.013Z,1
2023-03-11T05:34:39.936Z,1
2023-03-11T05:35:51.038Z,1
2023-03-11T05:36:57.902Z,1
2023-03-11T05:38:04.918Z,1
2023-03-11T05:39:11.888Z,0
2023-03-11T05:40:18.885Z,1
2023-03-11T05:41:25.883Z,1
2023-03-11T05:42:34.705Z,1
2023-03-11T05:43:41.632Z,0
2023-03-11T05:44:48.669Z,1
2023-03-11T05:45:55.623Z,1
2023-03-11T05:47:04.958Z,1
2023-03-11T05:48:11.857Z,1
2023-03-11T05:49:21.708Z,1
2023-03-11T05:50:31.245Z,1
2023-03-11T05:51:38.459Z,1
2023-03-11T05:52:45.447Z,1
2023-03-11T05:53:52.606Z,1
2023-03-11T05:54:59.622Z,1
2023-03-11T05:56:06.694Z,1
2023-03-11T05:57:14.121Z,1
2023-03-11T05:58:22.182Z,1
2023-03-11T05:59:34.506Z,1
2023-03-11T06:00:42.364Z,1
2023-03-11T06:01:49.376Z,1
2023-03-11T06:02:56.463Z,2
2023-03-11T06:04:06.472Z,1
2023-03-11T06:05:14.087Z,2
2023-03-11T06:06:23.260Z,2
2023-03-11T06:07:30.203Z,2
2023-03-11T06:08:37.171Z,1
2023-03-11T06:09:45.142Z,1
2023-03-11T06:10:54.850Z,1
2023-03-11T06:12:06.916Z,2
2023-03-11T06:13:15.177Z,2
2023-03-11T06:14:22.302Z,1
2023-03-11T06:15:29.253Z,1
2023-03-11T06:16:36.416Z,1
2023-03-11T06:17:43.201Z,1
2023-03-11T06:18:50.161Z,1
2023-03-11T06:19:57.278Z,1
2023-03-11T06:21:04.692Z,1
2023-03-11T06:22:15.706Z,2
2023-03-11T06:23:22.618Z,2
2023-03-11T06:24:29.889Z,1
2023-03-11T06:25:37.172Z,1
2023-03-11T06:26:44.248Z,2
2023-03-11T06:27:51.494Z,1
2023-03-11T06:28:58.582Z,1
2023-03-11T06:30:06.018Z,2
2023-03-11T06:31:16.490Z,2
2023-03-11T06:32:23.657Z,2
2023-03-11T06:33:30.881Z,2
2023-03-11T06:34:39.728Z,2
2023-03-11T06:35:47.297Z,2
2023-03-11T06:36:59.379Z,2
2023-03-11T06:38:06.474Z,1
2023-03-11T06:39:14.090Z,1
2023-03-11T06:40:21.173Z,1
2023-03-11T06:41:28.202Z,1
2023-03-11T06:42:38.194Z,1
2023-03-11T06:43:49.130Z,1
2023-03-11T06:44:57.983Z,1
2023-03-11T06:46:03.801Z,1
2023-03-11T06:47:09.581Z,1
2023-03-11T06:48:14.919Z,1
2023-03-11T06:49:20.049Z,1
2023-03-11T06:50:27.370Z,3
2023-03-11T06:51:35.583Z,4
2023-03-11T06:52:42.766Z,4
2023-03-11T06:53:52.060Z,4
2023-03-11T06:54:59.472Z,4
2023-03-11T06:56:06.953Z,2
2023-03-11T06:57:13.904Z,2
2023-03-11T06:58:20.884Z,2
2023-03-11T06:59:30.712Z,2
2023-03-11T07:00:37.988Z,2
2023-03-11T07:01:45.024Z,2
2023-03-11T07:02:51.998Z,2
2023-03-11T07:03:59.283Z,2
2023-03-11T07:05:07.080Z,2
2023-03-11T07:06:14.122Z,2
2023-03-11T07:07:21.200Z,2
2023-03-11T07:08:28.202Z,4
2023-03-11T07:09:35.569Z,3
2023-03-11T07:10:44.330Z,3
2023-03-11T07:11:51.904Z,3
2023-03-11T07:12:59.125Z,3
2023-03-11T07:14:06.110Z,3
2023-03-11T07:15:13.324Z,3
2023-03-11T07:16:20.661Z,4
2023-03-11T07:17:27.584Z,4
2023-03-11T07:18:37.258Z,4
2023-03-11T07:19:45.259Z,4
2023-03-11T07:20:52.545Z,4
2023-03-11T07:22:00.893Z,5
2023-03-11T07:23:08.526Z,5
2023-03-11T07:24:16.464Z,4
2023-03-11T07:25:26.660Z,5
2023-03-11T07:26:33.793Z,4
2023-03-11T07:27:41.793Z,4
2023-03-11T07:28:51.003Z,4
2023-03-11T07:29:58.509Z,5
2023-03-11T07:31:05.638Z,4
2023-03-11T07:32:15.471Z,5
2023-03-11T07:33:22.372Z,5
2023-03-11T07:34:30.197Z,5
2023-03-11T07:35:37.528Z,5
2023-03-11T07:36:44.488Z,5
2023-03-11T07:37:51.532Z,5
2023-03-11T07:38:58.541Z,5
2023-03-11T07:40:06.758Z,5
2023-03-11T07:41:14.287Z,5
2023-03-11T07:42:21.048Z,5
2023-03-11T07:43:28.067Z,4
2023-03-11T07:44:35.228Z,5
2023-03-11T07:45:45.372Z,5
2023-03-11T07:47:06.019Z,5
2023-03-11T07:48:24.155Z,6
2023-03-11T07:49:33.857Z,6
2023-03-11T07:50:41.000Z,6
2023-03-11T07:51:48.201Z,7
2023-03-11T07:52:55.880Z,8
2023-03-11T07:54:02.825Z,7
2023-03-11T07:55:10.786Z,8
2023-03-11T07:56:17.816Z,8
2023-03-11T07:57:25.730Z,8
2023-03-11T07:58:32.779Z,8
2023-03-11T07:59:41.045Z,8
2023-03-11T08:00:47.954Z,9
2023-03-11T08:01:55.769Z,8
2023-03-11T08:03:05.175Z,8
2023-03-11T08:04:14.256Z,8
2023-03-11T08:05:18.987Z,7
2023-03-11T08:06:25.922Z,7
2023-03-11T08:07:32.862Z,5
2023-03-11T08:08:40.965Z,6
2023-03-11T08:09:51.491Z,3
2023-03-11T08:10:58.373Z,4
2023-03-11T08:12:05.255Z,2
2023-03-11T08:13:12.365Z,3
2023-03-11T08:14:19.348Z,2
2023-03-11T08:15:27.112Z,3
2023-03-11T08:16:33.848Z,2
2023-03-11T08:17:40.729Z,2
2023-03-11T08:18:49.172Z,2
2023-03-11T08:19:56.072Z,1
2023-03-11T08:21:03.109Z,2
2023-03-11T08:22:12.874Z,2
2023-03-11T08:23:21.585Z,2
2023-03-11T08:24:31.521Z,2
2023-03-11T08:25:38.343Z,2
2023-03-11T08:26:46.374Z,2
2023-03-11T08:27:56.251Z,2
2023-03-11T08:29:03.204Z,2
2023-03-11T08:30:10.154Z,2
2023-03-11T08:31:17.452Z,2
2023-03-11T08:32:26.482Z,2
2023-03-11T08:33:33.391Z,2
2023-03-11T08:34:40.245Z,3
2023-03-11T08:35:47.119Z,2
2023-03-11T08:36:56.531Z,2
2023-03-11T08:38:05.715Z,2
2023-03-11T08:39:13.573Z,2
2023-03-11T08:40:20.307Z,2
2023-03-11T08:41:28.677Z,2
2023-03-11T08:42:37.157Z,2
2023-03-11T08:43:42.807Z,2
2023-03-11T08:44:49.847Z,1
2023-03-11T08:45:56.764Z,1
2023-03-11T08:47:04.944Z,1
2023-03-11T08:48:12.006Z,2
2023-03-11T08:49:22.634Z,2
2023-03-11T08:50:30.455Z,2
2023-03-11T08:51:37.496Z,3
2023-03-11T08:52:48.206Z,3
2023-03-11T08:53:55.218Z,3
2023-03-11T08:55:04.349Z,2
2023-03-11T08:56:12.069Z,2
2023-03-11T08:57:18.937Z,3
2023-03-11T08:58:26.133Z,2
2023-03-11T08:59:33.937Z,3
2023-03-11T09:00:43.151Z,2
2023-03-11T09:01:50.274Z,2
2023-03-11T09:02:57.236Z,2
2023-03-11T09:04:04.182Z,2
2023-03-11T09:05:11.140Z,2
2023-03-11T09:06:23.148Z,2
2023-03-11T09:07:30.111Z,2
2023-03-11T09:08:38.223Z,2
2023-03-11T09:09:45.293Z,2
2023-03-11T09:10:52.308Z,3
2023-03-11T09:11:59.764Z,2
2023-03-11T09:13:06.877Z,2
2023-03-11T09:14:13.852Z,2
2023-03-11T09:15:20.920Z,4
2023-03-11T09:16:29.913Z,3
2023-03-11T09:17:37.812Z,4
2023-03-11T09:18:44.774Z,4
2023-03-11T09:19:51.717Z,2
2023-03-11T09:20:58.655Z,2
2023-03-11T09:22:05.662Z,3
2023-03-11T09:23:12.653Z,5
2023-03-11T09:24:19.610Z,2
2023-03-11T09:25:26.510Z,7
2023-03-11T09:26:33.445Z,5
2023-03-11T09:27:40.427Z,15
2023-03-11T09:28:50.817Z,45
2023-03-11T09:29:57.906Z,44
2023-03-11T09:31:05.058Z,5
2023-03-11T09:32:12.170Z,3
2023-03-11T09:33:22.064Z,29
2023-03-11T09:34:29.084Z,14
2023-03-11T09:35:36.126Z,77
2023-03-11T09:36:43.052Z,91
2023-03-11T09:37:51.663Z,29
2023-03-11T09:38:58.750Z,11
2023-03-11T09:40:06.391Z,25
2023-03-11T09:41:22.970Z,25
2023-03-11T09:42:32.963Z,9
2023-03-11T09:43:50.635Z,22
2023-03-11T09:45:07.773Z,11
2023-03-11T09:46:20.048Z,24
2023-03-11T09:47:36.967Z,7
2023-03-11T09:48:51.050Z,9
2023-03-11T09:50:08.306Z,16
2023-03-11T09:51:23.266Z,8
2023-03-11T09:52:33.883Z,26
2023-03-11T09:53:46.295Z,20
2023-03-11T09:54:54.870Z,12
2023-03-11T09:56:01.811Z,8
2023-03-11T09:57:14.359Z,16
2023-03-11T09:58:26.299Z,12
2023-03-11T09:59:44.134Z,7
2023-03-11T10:00:51.170Z,10
2023-03-11T10:01:58.262Z,6
2023-03-11T10:03:05.261Z,9
2023-03-11T10:04:12.188Z,12
2023-03-11T10:05:24.702Z,5
2023-03-11T10:06:31.664Z,8
2023-03-11T10:07:38.806Z,8
2023-03-11T10:08:46.654Z,8
2023-03-11T10:09:53.837Z,5
2023-03-11T10:11:00.885Z,6
2023-03-11T10:12:18.153Z,5
2023-03-11T10:13:34.302Z,7
2023-03-11T10:14:48.857Z,7
2023-03-11T10:16:06.888Z,9
2023-03-11T10:17:22.154Z,8
2023-03-11T10:18:39.332Z,4
2023-03-11T10:19:49.637Z,6
2023-03-11T10:20:59.948Z,4
2023-03-11T10:22:16.816Z,4
2023-03-11T10:23:26.740Z,4
2023-03-11T10:24:43.884Z,4
2023-03-11T10:25:56.817Z,5
2023-03-11T10:27:14.509Z,4
2023-03-11T10:28:24.353Z,3
2023-03-11T10:29:36.541Z,4
2023-03-11T10:30:49.418Z,6
2023-03-11T10:31:59.407Z,6
2023-03-11T10:33:11.943Z,4
2023-03-11T10:34:28.954Z,4
2023-03-11T10:35:41.058Z,4
2023-03-11T10:36:47.972Z,5
2023-03-11T10:38:05.171Z,4
2023-03-11T10:39:22.472Z,3
2023-03-11T10:40:29.595Z,4
2023-03-11T10:41:39.660Z,4
2023-03-11T10:42:50.309Z,4
2023-03-11T10:43:57.377Z,4
2023-03-11T10:45:07.857Z,3
2023-03-11T10:46:17.920Z,3
2023-03-11T10:47:27.648Z,4
2023-03-11T10:48:34.893Z,3
2023-03-11T10:49:41.996Z,2
2023-03-11T10:50:49.244Z,4
2023-03-11T10:52:04.101Z,3
2023-03-11T10:53:11.456Z,4
2023-03-11T10:54:18.547Z,3
2023-03-11T10:55:32.309Z,4
2023-03-11T10:56:39.369Z,4
2023-03-11T10:57:47.209Z,3
2023-03-11T10:59:02.143Z,4
2023-03-11T11:00:20.946Z,5
2023-03-11T11:01:32.717Z,4
2023-03-11T11:02:42.112Z,3
2023-03-11T11:03:54.918Z,3
2023-03-11T11:05:01.929Z,5
2023-03-11T11:06:14.090Z,6
2023-03-11T11:07:30.934Z,6
2023-03-11T11:08:37.929Z,4
2023-03-11T11:09:45.644Z,4
2023-03-11T11:10:52.518Z,4
2023-03-11T11:12:06.259Z,4
2023-03-11T11:13:16.865Z,4
2023-03-11T11:14:23.761Z,3
2023-03-11T11:15:31.485Z,3
2023-03-11T11:16:41.200Z,4
2023-03-11T11:17:50.106Z,4
2023-03-11T11:18:57.162Z,4
2023-03-11T11:20:08.742Z,4
2023-03-11T11:21:21.506Z,4
2023-03-11T11:22:34.089Z,3
2023-03-11T11:23:41.082Z,3
2023-03-11T11:24:53.870Z,2
2023-03-11T11:26:01.762Z,2
2023-03-11T11:27:08.690Z,3
2023-03-11T11:28:20.640Z,3
2023-03-11T11:29:27.568Z,4
2023-03-11T11:30:34.550Z,4
2023-03-11T11:31:44.166Z,4
2023-03-11T11:32:51.148Z,5
2023-03-11T11:33:58.058Z,11
2023-03-11T11:35:04.859Z,5
2023-03-11T11:36:14.597Z,11
2023-03-11T11:37:21.489Z,17
2023-03-11T11:38:28.627Z,8
2023-03-11T11:39:35.708Z,4
2023-03-11T11:40:47.833Z,5
2023-03-11T11:41:56.434Z,8
2023-03-11T11:43:03.252Z,7
2023-03-11T11:44:10.645Z,6
2023-03-11T11:45:17.666Z,8
2023-03-11T11:46:32.779Z,7
2023-03-11T11:47:45.468Z,5
2023-03-11T11:48:53.389Z,3
2023-03-11T11:50:05.458Z,5
2023-03-11T11:51:21.544Z,4
2023-03-11T11:52:32.807Z,4
2023-03-11T11:53:44.879Z,4
2023-03-11T11:54:54.716Z,5
2023-03-11T11:56:06.824Z,4
2023-03-11T11:57:13.883Z,4
2023-03-11T11:58:20.919Z,3
2023-03-11T11:59:28.933Z,4
2023-03-11T12:00:36.928Z,4
2023-03-11T12:01:48.860Z,3
2023-03-11T12:03:03.944Z,3
2023-03-11T12:04:21.243Z,4
2023-03-11T12:05:38.404Z,3
2023-03-11T12:06:54.406Z,6
2023-03-11T12:08:11.672Z,10
2023-03-11T12:09:23.820Z,5
2023-03-11T12:10:34.524Z,4
2023-03-11T12:11:52.337Z,2
2023-03-11T12:13:04.424Z,2
2023-03-11T12:14:18.177Z,2
2023-03-11T12:15:25.587Z,2
2023-03-11T12:16:32.691Z,2
2023-03-11T12:17:48.462Z,2
2023-03-11T12:18:55.428Z,2
2023-03-11T12:20:05.182Z,2
2023-03-11T12:21:13.609Z,2
2023-03-11T12:22:28.796Z,2
2023-03-11T12:23:42.361Z,2
2023-03-11T12:24:52.332Z,3
2023-03-11T12:26:07.070Z,4
2023-03-11T12:27:17.052Z,4
2023-03-11T12:28:24.634Z,6
2023-03-11T12:29:37.157Z,6
2023-03-11T12:30:44.181Z,8
2023-03-11T12:31:54.378Z,6
2023-03-11T12:33:01.384Z,7
2023-03-11T12:34:14.404Z,4
2023-03-11T12:35:21.539Z,12
2023-03-11T12:36:33.682Z,15
2023-03-11T12:37:41.182Z,9
2023-03-11T12:38:48.152Z,10
2023-03-11T12:39:55.126Z,22
2023-03-11T12:41:02.090Z,31
2023-03-11T12:42:14.823Z,16
2023-03-11T12:43:24.600Z,36
2023-03-11T12:44:34.144Z,30
2023-03-11T12:45:41.225Z,19
2023-03-11T12:46:56.430Z,64
2023-03-11T12:48:09.316Z,37
2023-03-11T12:49:26.398Z,15
2023-03-11T12:50:36.438Z,18
2023-03-11T12:51:43.571Z,21
2023-03-11T12:53:00.595Z,30
2023-03-11T12:54:10.883Z,28
2023-03-11T12:55:22.841Z,21
2023-03-11T12:56:32.739Z,34
2023-03-11T12:57:40.042Z,24
2023-03-11T12:58:49.762Z,20
2023-03-11T13:00:07.598Z,22
2023-03-11T13:01:25.466Z,12
2023-03-11T13:02:47.915Z,4
2023-03-11T13:04:02.409Z,9
2023-03-11T13:05:17.025Z,12
2023-03-11T13:06:35.116Z,6
2023-03-11T13:07:45.878Z,7
2023-03-11T13:08:59.514Z,6
2023-03-11T13:10:08.281Z,6
2023-03-11T13:11:15.254Z,6
2023-03-11T13:12:32.319Z,5
2023-03-11T13:13:47.362Z,5
2023-03-11T13:14:54.307Z,5
2023-03-11T13:16:14.224Z,6
2023-03-11T13:17:21.108Z,6
2023-03-11T13:18:31.265Z,13
2023-03-11T13:19:38.247Z,8
2023-03-11T13:20:50.456Z,5
2023-03-11T13:21:57.458Z,8
2023-03-11T13:23:04.423Z,6
2023-03-11T13:24:21.450Z,11
2023-03-11T13:25:32.288Z,7
2023-03-11T13:26:45.266Z,6
2023-03-11T13:27:55.138Z,6
2023-03-11T13:29:07.757Z,8
2023-03-11T13:30:22.893Z,6
2023-03-11T13:31:29.900Z,7
2023-03-11T13:32:41.932Z,6
2023-03-11T13:33:59.398Z,4
2023-03-11T13:35:14.592Z,3
2023-03-11T13:36:31.988Z,4
2023-03-11T13:37:47.037Z,4
2023-03-11T13:39:04.257Z,5
2023-03-11T13:40:16.288Z,4
2023-03-11T13:41:29.150Z,4
2023-03-11T13:42:37.565Z,4
2023-03-11T13:43:50.383Z,4
2023-03-11T13:44:57.871Z,4
2023-03-11T13:46:04.986Z,4
2023-03-11T13:47:15.018Z,3
2023-03-11T13:48:21.978Z,4
2023-03-11T13:49:32.506Z,4
2023-03-11T13:50:49.795Z,4
2023-03-11T13:51:56.782Z,4
2023-03-11T13:53:08.351Z,4
2023-03-11T13:54:19.322Z,4
2023-03-11T13:55:34.314Z,4
2023-03-11T13:56:44.138Z,4
2023-03-11T13:57:56.377Z,4
2023-03-11T13:59:03.313Z,4
2023-03-11T14:00:20.318Z,3
2023-03-11T14:01:27.362Z,4
2023-03-11T14:02:34.264Z,3
2023-03-11T14:03:41.166Z,4
2023-03-11T14:04:47.911Z,4
2023-03-11T14:05:54.807Z,3
2023-03-11T14:07:01.732Z,3
2023-03-11T14:08:16.224Z,3
2023-03-11T14:09:28.096Z,3
2023-03-11T14:10:35.346Z,4
2023-03-11T14:11:42.307Z,4
2023-03-11T14:12:49.268Z,4
2023-03-11T14:14:01.101Z,4
2023-03-11T14:15:08.970Z,4
2023-03-11T14:16:19.992Z,4
2023-03-11T14:17:29.996Z,4
2023-03-11T14:18:37.067Z,4
2023-03-11T14:19:44.410Z,4
2023-03-11T14:21:01.488Z,5
2023-03-11T14:22:08.491Z,7
2023-03-11T14:23:15.482Z,8
2023-03-11T14:24:22.795Z,29
2023-03-11T14:25:30.179Z,24
2023-03-11T14:26:37.171Z,22
2023-03-11T14:27:44.203Z,22
2023-03-11T14:28:56.263Z,21
2023-03-11T14:30:10.147Z,13
2023-03-11T14:31:23.375Z,17
2023-03-11T14:32:37.936Z,22
2023-03-11T14:33:44.796Z,19
2023-03-11T14:34:58.276Z,26
2023-03-11T14:36:07.032Z,33
2023-03-11T14:37:14.233Z,24
2023-03-11T14:38:29.326Z,17
2023-03-11T14:39:36.386Z,38
2023-03-11T14:40:44.192Z,24
2023-03-11T14:41:52.324Z,15
2023-03-11T14:43:04.393Z,31
2023-03-11T14:44:11.308Z,21
2023-03-11T14:45:18.432Z,18
2023-03-11T14:46:26.045Z,14
2023-03-11T14:47:35.052Z,12
2023-03-11T14:48:44.981Z,6
2023-03-11T14:49:52.023Z,14
2023-03-11T14:51:02.062Z,5
2023-03-11T14:52:11.338Z,6
2023-03-11T14:53:29.455Z,7
2023-03-11T14:54:41.747Z,12
2023-03-11T14:55:52.158Z,5
2023-03-11T14:57:04.181Z,6
2023-03-11T14:58:13.505Z,9
2023-03-11T14:59:26.230Z,8
2023-03-11T15:00:33.409Z,6
2023-03-11T15:01:41.816Z,7
2023-03-11T15:02:48.808Z,7
2023-03-11T15:04:01.937Z,8
2023-03-11T15:05:10.561Z,6
2023-03-11T15:06:20.477Z,7
2023-03-11T15:07:33.481Z,5
2023-03-11T15:08:40.977Z,5
2023-03-11T15:09:50.860Z,5
2023-03-11T15:10:57.824Z,9
2023-03-11T15:12:05.394Z,6
2023-03-11T15:13:15.504Z,4
2023-03-11T15:14:23.542Z,5
2023-03-11T15:15:34.028Z,6
2023-03-11T15:16:42.079Z,7
2023-03-11T15:17:49.660Z,8
2023-03-11T15:18:58.680Z,9
2023-03-11T15:20:16.388Z,10
2023-03-11T15:21:26.763Z,8
2023-03-11T15:22:35.867Z,8
2023-03-11T15:23:48.411Z,8
2023-03-11T15:25:06.015Z,10
2023-03-11T15:26:19.955Z,7
2023-03-11T15:27:31.494Z,7
2023-03-11T15:28:39.487Z,9
2023-03-11T15:29:46.904Z,6
2023-03-11T15:30:56.375Z,7
2023-03-11T15:32:15.205Z,7
2023-03-11T15:33:32.617Z,5
2023-03-11T15:34:39.642Z,8
2023-03-11T15:35:46.763Z,6
2023-03-11T15:36:54.538Z,6
2023-03-11T15:38:10.550Z,5
2023-03-11T15:39:22.630Z,4
2023-03-11T15:40:44.803Z,5
2023-03-11T15:41:42.617Z,4
2023-03-11T15:42:50.441Z,4
2023-03-11T15:44:08.465Z,4
2023-03-11T15:45:24.318Z,4
2023-03-11T15:46:31.584Z,4
2023-03-11T15:47:38.685Z,10
2023-03-11T15:48:46.041Z,19
2023-03-11T15:49:56.608Z,40
2023-03-11T15:51:04.554Z,15
2023-03-11T15:52:16.349Z,20
2023-03-11T15:53:24.729Z,13
2023-03-11T15:54:31.911Z,45
2023-03-11T15:55:41.445Z,55
2023-03-11T15:56:50.333Z,47
2023-03-11T15:57:59.002Z,50
2023-03-11T15:59:07.155Z,37
2023-03-11T16:00:17.767Z,30
2023-03-11T16:01:25.413Z,50
2023-03-11T16:02:32.555Z,41
2023-03-11T16:03:39.968Z,78
2023-03-11T16:04:47.368Z,51
2023-03-11T16:05:54.575Z,49
2023-03-11T16:07:08.163Z,28
2023-03-11T16:08:11.476Z,43
2023-03-11T16:09:20.256Z,47
2023-03-11T16:10:27.668Z,25
2023-03-11T16:11:36.888Z,24
2023-03-11T16:12:44.030Z,43
2023-03-11T16:13:51.307Z,26
2023-03-11T16:14:58.961Z,28
2023-03-11T16:16:09.059Z,24
2023-03-11T16:17:21.902Z,20
2023-03-11T16:18:29.439Z,11
2023-03-11T16:19:36.890Z,10
2023-03-11T16:20:46.862Z,7
2023-03-11T16:21:54.545Z,8
2023-03-11T16:23:01.669Z,6
2023-03-11T16:24:09.962Z,6
2023-03-11T16:25:21.781Z,8
2023-03-11T16:26:39.502Z,8
2023-03-11T16:27:52.153Z,6
2023-03-11T16:29:09.290Z,5
2023-03-11T16:30:08.138Z,5
2023-03-11T16:31:16.728Z,4
2023-03-11T16:32:26.377Z,4
2023-03-11T16:33:36.767Z,4
2023-03-11T16:34:46.140Z,4
2023-03-11T16:35:54.268Z,4
2023-03-11T16:37:05.331Z,4
2023-03-11T16:38:15.645Z,4
2023-03-11T16:39:28.414Z,4
2023-03-11T16:40:41.176Z,6
2023-03-11T16:41:52.613Z,4
2023-03-11T16:42:59.850Z,5
2023-03-11T16:44:09.667Z,4
2023-03-11T16:45:23.646Z,5
2023-03-11T16:46:35.568Z,5
2023-03-11T16:47:47.886Z,5
2023-03-11T16:49:00.237Z,4
2023-03-11T16:50:08.630Z,4
2023-03-11T16:51:16.658Z,4
2023-03-11T16:52:25.054Z,4
2023-03-11T16:53:32.514Z,4
2023-03-11T16:54:41.074Z,5
2023-03-11T16:55:51.512Z,4